Time;durP1;ratioP1;P1;durP2;ratioP2;P2;SDS_P1;SDS_P2;PMS_P1;PMS_P2;Temp;Humidity;BMP_temperature;BMP_pressure;BME280_temperature;BME280_humidity;BME280_pressure;Samples;Min_cycle;Max_cycle;Signal;HPM_P1;HPM_P2
2021/01/09 00:01:41;;;;;;;20.95;11.23;;;3.80;77.00;;;;;;5114072;28;20384;-74
2021/01/09 00:04:07;;;;;;;23.77;11.57;;;3.80;76.90;;;;;;5112871;28;20083;-75
2021/01/09 00:06:39;;;;;;;22.58;11.77;;;3.70;76.90;;;;;;5114319;28;20466;-73
2021/01/09 00:09:06;;;;;;;26.88;12.18;;;3.70;76.60;;;;;;5114370;28;20490;-73
2021/01/09 00:11:33;;;;;;;22.63;12.05;;;3.60;76.70;;;;;;5112119;28;20030;-73
2021/01/09 00:13:59;;;;;;;22.52;12.27;;;3.60;76.80;;;;;;5114029;28;20032;-73
2021/01/09 00:16:25;;;;;;;22.40;11.68;;;3.60;76.90;;;;;;5113186;28;20324;-74
2021/01/09 00:18:52;;;;;;;22.88;13.23;;;3.60;76.90;;;;;;5113909;28;20028;-74
2021/01/09 00:21:18;;;;;;;21.25;11.32;;;3.50;76.90;;;;;;5113688;28;20535;-74
2021/01/09 00:23:43;;;;;;;24.42;12.50;;;3.50;77.10;;;;;;5112706;28;20077;-75
2021/01/09 00:26:09;;;;;;;22.02;11.48;;;3.50;77.20;;;;;;5112471;28;20126;-73
2021/01/09 00:28:35;;;;;;;22.17;11.68;;;3.50;77.30;;;;;;5113881;28;20064;-73
2021/01/09 00:31:01;;;;;;;23.35;11.82;;;3.40;77.30;;;;;;5113086;28;20023;-73
2021/01/09 00:33:27;;;;;;;26.13;12.60;;;3.50;77.40;;;;;;5114133;28;20016;-73
2021/01/09 00:35:56;;;;;;;23.30;11.43;;;3.40;77.30;;;;;;5112878;28;20028;-73
2021/01/09 00:38:23;;;;;;;25.40;11.32;;;3.40;77.20;;;;;;5113529;28;20131;-72
2021/01/09 00:40:49;;;;;;;22.98;11.43;;;3.40;77.00;;;;;;5113393;28;20032;-73
2021/01/09 00:43:15;;;;;;;25.23;12.40;;;3.30;76.70;;;;;;5114214;28;20024;-73
2021/01/09 00:45:41;;;;;;;23.13;11.50;;;3.20;76.80;;;;;;5113637;28;20032;-73
2021/01/09 00:48:07;;;;;;;22.50;11.70;;;3.20;76.90;;;;;;5113527;28;20051;-73
2021/01/09 00:50:32;;;;;;;23.30;11.52;;;3.10;76.90;;;;;;5113248;28;20531;-73
2021/01/09 00:52:58;;;;;;;23.55;11.38;;;3.10;77.00;;;;;;5112971;28;20076;-74
2021/01/09 00:55:24;;;;;;;21.60;11.77;;;3.00;76.90;;;;;;5117586;28;20027;-74
2021/01/09 00:57:49;;;;;;;20.48;10.93;;;3.00;77.20;;;;;;5117728;28;20023;-74
2021/01/09 01:00:15;;;;;;;26.05;12.30;;;3.00;77.40;;;;;;5117573;28;20031;-75
2021/01/09 01:02:41;;;;;;;22.83;12.30;;;2.90;77.40;;;;;;5117590;28;20024;-73
2021/01/09 01:05:08;;;;;;;21.83;11.40;;;3.00;77.80;;;;;;5117384;28;20030;-74
2021/01/09 01:07:36;;;;;;;24.65;11.80;;;3.00;77.60;;;;;;5117884;28;20096;-73
2021/01/09 01:10:06;;;;;;;24.13;12.52;;;2.90;77.50;;;;;;5117422;28;20028;-72
2021/01/09 01:12:32;;;;;;;21.95;11.85;;;2.90;77.50;;;;;;5115556;28;20031;-73
2021/01/09 01:14:58;;;;;;;25.83;12.45;;;2.90;77.60;;;;;;5118045;28;20039;-73
2021/01/09 01:17:23;;;;;;;27.58;13.38;;;2.90;77.80;;;;;;5116924;28;20054;-73
2021/01/09 01:19:49;;;;;;;26.08;13.70;;;2.90;77.80;;;;;;5117645;28;20369;-74
2021/01/09 01:22:15;;;;;;;24.48;12.50;;;2.90;77.60;;;;;;5117440;28;20452;-74
2021/01/09 01:24:41;;;;;;;22.95;12.07;;;2.90;77.70;;;;;;5117647;28;20487;-73
2021/01/09 01:27:06;;;;;;;24.27;11.90;;;2.90;77.80;;;;;;5117321;28;20049;-74
2021/01/09 01:29:32;;;;;;;21.60;11.75;;;2.90;77.80;;;;;;5116001;28;20036;-73
2021/01/09 01:31:58;;;;;;;22.77;11.00;;;3.00;77.80;;;;;;5116662;28;20028;-73
2021/01/09 01:34:24;;;;;;;23.40;11.45;;;3.00;77.70;;;;;;5117229;28;20485;-73
2021/01/09 01:36:50;;;;;;;23.05;12.13;;;3.00;77.70;;;;;;5116602;28;20035;-73
2021/01/09 01:39:16;;;;;;;24.85;12.95;;;3.00;77.90;;;;;;5117131;28;20448;-73
2021/01/09 01:41:42;;;;;;;24.65;11.82;;;3.00;77.90;;;;;;5117185;28;20020;-72
2021/01/09 01:44:09;;;;;;;22.52;11.25;;;3.10;77.90;;;;;;5116523;28;20360;-73
2021/01/09 01:46:34;;;;;;;26.08;12.57;;;3.10;78.40;;;;;;5116986;28;20039;-73
2021/01/09 01:49:00;;;;;;;21.42;11.77;;;3.10;77.80;;;;;;5117110;28;20024;-73
2021/01/09 01:51:26;;;;;;;27.65;12.65;;;3.20;77.90;;;;;;5115400;28;20055;-74
2021/01/09 01:53:54;;;;;;;21.35;11.50;;;3.20;77.90;;;;;;5117076;28;20020;-73
2021/01/09 01:56:21;;;;;;;24.30;11.68;;;3.20;77.70;;;;;;5116229;27;20122;-74
2021/01/09 01:58:47;;;;;;;21.65;11.57;;;3.30;77.60;;;;;;5115773;28;20428;-73
2021/01/09 02:01:16;;;;;;;25.90;12.68;;;3.30;77.50;;;;;;5115299;28;20399;-72
2021/01/09 02:03:41;;;;;;;25.00;13.07;;;3.30;77.20;;;;;;5115167;28;20024;-74
2021/01/09 02:06:16;;;;;;;20.83;11.82;;;3.30;77.20;;;;;;5115727;28;20035;-74
2021/01/09 02:08:48;;;;;;;22.60;12.18;;;3.30;77.00;;;;;;5116325;28;20028;-74
2021/01/09 02:11:25;;;;;;;22.35;12.27;;;3.20;76.80;;;;;;5116000;28;20027;-73
2021/01/09 02:13:59;;;;;;;22.55;11.85;;;3.20;76.90;;;;;;5115701;28;20027;-74
2021/01/09 02:16:25;;;;;;;22.45;10.88;;;3.20;76.80;;;;;;5116287;28;20031;-73
2021/01/09 02:18:53;;;;;;;22.45;12.57;;;3.20;77.20;;;;;;5116252;28;20032;-73
2021/01/09 02:21:34;;;;;;;21.60;11.25;;;3.20;77.20;;;;;;5114863;28;20058;-73
2021/01/09 02:24:00;;;;;;;21.33;11.32;;;3.20;77.20;;;;;;5116694;28;20065;-73
2021/01/09 02:26:26;;;;;;;22.58;12.00;;;3.20;77.30;;;;;;5115946;28;20035;-74
2021/01/09 02:28:51;;;;;;;21.80;11.20;;;3.20;77.30;;;;;;5114304;28;20053;-73
2021/01/09 02:31:21;;;;;;;20.92;11.57;;;3.30;77.40;;;;;;5115938;28;20442;-73
2021/01/09 02:33:49;;;;;;;22.52;12.23;;;3.30;77.40;;;;;;5115959;28;20027;-74
2021/01/09 02:36:16;;;;;;;25.35;12.13;;;3.30;77.30;;;;;;5114614;28;20035;-73
2021/01/09 02:38:43;;;;;;;28.25;14.20;;;3.30;77.20;;;;;;5114743;28;20043;-73
2021/01/09 02:41:11;;;;;;;25.73;12.75;;;3.30;77.00;;;;;;5115948;28;20039;-73
2021/01/09 02:43:37;;;;;;;24.02;13.20;;;3.30;77.20;;;;;;5115480;28;20471;-73
2021/01/09 02:46:02;;;;;;;26.13;13.68;;;3.30;77.30;;;;;;5114838;28;20024;-73
2021/01/09 02:48:28;;;;;;;26.58;13.25;;;3.40;77.30;;;;;;5114944;28;20402;-72
2021/01/09 02:50:54;;;;;;;25.42;14.00;;;3.40;77.20;;;;;;5115792;28;20020;-74
2021/01/09 02:53:19;;;;;;;27.85;13.25;;;3.40;77.10;;;;;;5114735;28;20073;-72
2021/01/09 02:55:45;;;;;;;23.17;12.52;;;3.40;77.00;;;;;;5115863;28;20034;-73
2021/01/09 02:58:11;;;;;;;23.98;12.93;;;3.40;77.20;;;;;;5115532;28;20023;-72
2021/01/09 03:00:36;;;;;;;23.48;13.27;;;3.40;77.10;;;;;;5115528;28;20119;-74
2021/01/09 03:03:02;;;;;;;23.42;12.52;;;3.40;77.30;;;;;;5113869;28;20027;-73
2021/01/09 03:05:28;;;;;;;23.27;12.65;;;3.50;77.40;;;;;;5115183;28;20480;-73
2021/01/09 03:07:53;;;;;;;25.50;12.90;;;3.50;77.40;;;;;;5114835;28;20399;-73
2021/01/09 03:10:19;;;;;;;26.73;13.63;;;3.50;77.20;;;;;;5115006;28;20027;-72
2021/01/09 03:12:45;;;;;;;25.40;13.68;;;3.50;77.20;;;;;;5114180;28;20024;-72
2021/01/09 03:15:11;;;;;;;24.50;12.55;;;3.60;77.20;;;;;;5114968;28;20023;-73
2021/01/09 03:17:37;;;;;;;22.38;12.75;;;3.60;76.90;;;;;;5114097;28;20024;-75
2021/01/09 03:20:03;;;;;;;24.45;13.18;;;3.60;76.90;;;;;;5114925;28;20032;-73
2021/01/09 03:22:28;;;;;;;24.48;13.07;;;3.60;76.90;;;;;;5114537;28;20027;-73
2021/01/09 03:24:54;;;;;;;29.48;13.88;;;3.60;76.70;;;;;;5115208;28;20189;-73
2021/01/09 03:27:20;;;;;;;26.00;14.15;;;3.60;76.40;;;;;;5113504;28;20039;-73
2021/01/09 03:29:45;;;;;;;32.58;15.07;;;3.60;76.60;;;;;;5115077;28;20039;-73
2021/01/09 03:32:11;;;;;;;30.77;15.52;;;3.60;76.60;;;;;;5114622;28;20479;-72
2021/01/09 03:34:37;;;;;;;31.85;16.00;;;3.60;76.50;;;;;;5114300;28;20426;-72
2021/01/09 03:37:02;;;;;;;34.53;14.63;;;3.60;76.30;;;;;;5114374;28;20023;-73
2021/01/09 03:39:28;;;;;;;32.28;16.58;;;3.60;76.40;;;;;;5114310;28;20047;-73
2021/01/09 03:41:54;;;;;;;28.83;13.80;;;3.60;76.50;;;;;;5114600;28;20020;-73
2021/01/09 03:44:19;;;;;;;26.63;14.20;;;3.60;76.40;;;;;;5114820;28;20026;-74
2021/01/09 03:46:45;;;;;;;25.08;14.20;;;3.60;76.30;;;;;;5113407;28;20028;-72
2021/01/09 03:49:11;;;;;;;27.45;13.80;;;3.60;76.20;;;;;;5114402;28;20031;-72
2021/01/09 03:51:36;;;;;;;27.38;14.82;;;3.60;76.20;;;;;;5114348;28;20020;-73
2021/01/09 03:54:02;;;;;;;26.77;14.15;;;3.50;76.20;;;;;;5114533;28;20399;-73
2021/01/09 03:56:28;;;;;;;29.13;14.85;;;3.50;76.20;;;;;;5114322;28;20110;-73
2021/01/09 03:58:53;;;;;;;29.17;15.05;;;3.50;76.20;;;;;;5113961;28;20027;-73
2021/01/09 04:01:19;;;;;;;32.17;16.52;;;3.50;76.10;;;;;;5113958;28;20028;-73
2021/01/09 04:03:45;;;;;;;34.42;16.90;;;3.50;76.10;;;;;;5113361;28;20027;-73
2021/01/09 04:06:11;;;;;;;34.63;17.95;;;3.40;76.30;;;;;;5114090;28;20452;-73
2021/01/09 04:08:36;;;;;;;37.88;18.48;;;3.40;76.20;;;;;;5113971;28;20030;-73
2021/01/09 04:11:02;;;;;;;32.22;16.38;;;3.40;76.30;;;;;;5113938;28;20019;-73
2021/01/09 04:13:28;;;;;;;29.58;15.82;;;3.40;76.30;;;;;;5114015;28;20024;-74
2021/01/09 04:15:53;;;;;;;28.73;15.10;;;3.40;76.30;;;;;;5112366;28;20027;-73
2021/01/09 04:18:19;;;;;;;28.92;15.15;;;3.30;76.40;;;;;;5113441;28;20048;-74
2021/01/09 04:20:45;;;;;;;30.77;14.45;;;3.30;76.30;;;;;;5113803;28;20032;-74
2021/01/09 04:23:10;;;;;;;32.05;15.85;;;3.30;76.30;;;;;;5114163;28;20080;-73
2021/01/09 04:25:36;;;;;;;33.85;16.67;;;3.20;76.30;;;;;;5113935;28;20027;-72
2021/01/09 04:28:02;;;;;;;30.02;15.18;;;3.20;76.60;;;;;;5113615;28;20035;-73
2021/01/09 04:30:27;;;;;;;30.20;15.50;;;3.30;76.80;;;;;;5113797;28;20105;-74
2021/01/09 04:32:53;;;;;;;28.02;14.23;;;3.20;76.80;;;;;;5113012;28;20042;-72
2021/01/09 04:35:19;;;;;;;32.10;15.52;;;3.30;76.90;;;;;;5114265;28;20020;-72
2021/01/09 04:37:44;;;;;;;30.75;15.23;;;3.30;76.80;;;;;;5113859;28;20030;-73
2021/01/09 04:40:11;;;;;;;28.73;14.63;;;3.30;76.80;;;;;;5113969;28;20035;-73
2021/01/09 04:42:36;;;;;;;25.70;13.90;;;3.30;76.90;;;;;;5113752;28;20053;-73
2021/01/09 04:45:04;;;;;;;27.25;14.40;;;3.30;76.90;;;;;;5114016;28;20456;-73
2021/01/09 04:47:31;;;;;;;30.08;15.50;;;3.30;76.70;;;;;;5113700;28;20118;-74
2021/01/09 04:49:57;;;;;;;29.55;15.05;;;3.30;76.80;;;;;;5113877;28;20135;-74
2021/01/09 04:52:23;;;;;;;34.85;16.42;;;3.30;77.00;;;;;;5113348;28;20042;-73
2021/01/09 04:54:51;;;;;;;27.30;14.43;;;3.30;76.80;;;;;;5113772;28;20056;-73
2021/01/09 04:57:17;;;;;;;30.60;14.88;;;3.30;76.70;;;;;;5113731;28;20019;-73
2021/01/09 04:59:43;;;;;;;28.75;14.57;;;3.20;77.10;;;;;;5112161;28;20036;-72
2021/01/09 05:02:12;;;;;;;33.28;16.20;;;3.20;76.70;;;;;;5113568;28;20023;-74
2021/01/09 05:04:45;;;;;;;33.30;16.58;;;3.20;76.60;;;;;;5113828;28;20034;-74
2021/01/09 05:07:11;;;;;;;30.60;16.25;;;3.20;76.90;;;;;;5114044;28;20363;-74
2021/01/09 05:09:37;;;;;;;34.78;16.48;;;3.20;76.80;;;;;;5113454;28;20039;-73
2021/01/09 05:12:03;;;;;;;33.50;16.00;;;3.20;76.70;;;;;;5112229;28;20023;-74
2021/01/09 05:14:29;;;;;;;33.50;17.00;;;3.20;76.60;;;;;;5111783;28;20032;-75
2021/01/09 05:16:58;;;;;;;32.47;16.85;;;3.20;76.80;;;;;;5113782;28;20030;-73
2021/01/09 05:19:29;;;;;;;37.28;16.95;;;3.20;76.90;;;;;;5113726;28;20084;-73
2021/01/09 05:21:57;;;;;;;34.35;16.67;;;3.20;77.00;;;;;;5112119;28;20031;-73
2021/01/09 05:24:23;;;;;;;30.35;15.38;;;3.20;77.10;;;;;;5113325;28;20059;-74
2021/01/09 05:26:49;;;;;;;30.50;15.93;;;3.30;77.10;;;;;;5113286;28;20076;-74
2021/01/09 05:29:16;;;;;;;33.78;16.88;;;3.30;77.30;;;;;;5113004;28;20439;-74
2021/01/09 05:31:43;;;;;;;30.83;17.25;;;3.30;76.80;;;;;;5113187;28;20035;-74
2021/01/09 05:34:09;;;;;;;35.10;17.58;;;3.30;76.70;;;;;;5113216;28;20024;-73
2021/01/09 05:36:39;;;;;;;33.42;16.85;;;3.30;76.80;;;;;;5113148;28;20115;-73
2021/01/09 05:39:05;;;;;;;33.17;16.65;;;3.30;76.70;;;;;;5111429;28;20559;-73
2021/01/09 05:41:30;;;;;;;31.08;16.10;;;3.30;76.80;;;;;;5116842;28;20020;-75
2021/01/09 05:44:01;;;;;;;29.20;16.15;;;3.30;76.80;;;;;;5116194;28;20420;-74
2021/01/09 05:46:31;;;;;;;35.42;17.17;;;3.30;76.80;;;;;;5116873;28;20024;-73
2021/01/09 05:48:58;;;;;;;33.45;17.45;;;3.30;76.70;;;;;;5116500;28;20028;-74
2021/01/09 05:51:25;;;;;;;32.13;16.98;;;3.30;76.80;;;;;;5116830;28;20024;-74
2021/01/09 05:53:51;;;;;;;36.55;17.38;;;3.30;76.90;;;;;;5116747;28;20152;-73
2021/01/09 05:56:20;;;;;;;32.50;17.15;;;3.30;77.00;;;;;;5116577;28;20065;-73
2021/01/09 05:58:48;;;;;;;38.53;18.90;;;3.30;76.90;;;;;;5116713;28;20027;-73
2021/01/09 06:01:14;;;;;;;35.28;17.88;;;3.30;76.90;;;;;;5116171;28;20043;-74
2021/01/09 06:03:44;;;;;;;39.13;18.85;;;3.40;77.10;;;;;;5116384;28;20121;-74
2021/01/09 06:06:28;;;;;;;34.60;17.60;;;3.40;77.10;;;;;;5116965;28;20031;-73
2021/01/09 06:08:59;;;;;;;37.78;18.23;;;3.40;77.00;;;;;;5116215;28;20073;-73
2021/01/09 06:11:33;;;;;;;37.90;18.60;;;3.40;77.00;;;;;;5115984;28;20028;-73
2021/01/09 06:14:00;;;;;;;38.28;18.83;;;3.40;77.00;;;;;;5115342;28;20516;-72
2021/01/09 06:16:31;;;;;;;40.80;19.90;;;3.40;77.00;;;;;;5114337;28;20359;-73
2021/01/09 06:18:58;;;;;;;41.33;19.42;;;3.40;77.00;;;;;;5116186;28;20034;-73
2021/01/09 06:21:28;;;;;;;40.15;19.40;;;3.40;76.90;;;;;;5116141;28;20505;-73
2021/01/09 06:23:55;;;;;;;40.42;20.42;;;3.40;76.90;;;;;;5116068;28;20038;-74
2021/01/09 06:26:22;;;;;;;40.38;19.77;;;3.40;76.80;;;;;;5116390;28;20051;-75
2021/01/09 06:28:55;;;;;;;39.55;19.98;;;3.40;76.90;;;;;;5116096;28;20073;-74
2021/01/09 06:31:22;;;;;;;35.55;18.73;;;3.40;77.30;;;;;;5114726;28;20440;-74
2021/01/09 06:33:50;;;;;;;38.30;17.52;;;3.50;77.20;;;;;;5114775;28;20084;-74
2021/01/09 06:36:18;;;;;;;36.17;18.70;;;3.50;77.20;;;;;;5116154;28;20028;-74
2021/01/09 06:38:48;;;;;;;40.90;18.15;;;3.50;77.50;;;;;;5114293;28;20048;-74
2021/01/09 06:41:19;;;;;;;37.78;18.83;;;3.60;77.30;;;;;;5116496;28;20356;-74
2021/01/09 06:43:48;;;;;;;36.10;18.23;;;3.60;77.10;;;;;;5115167;28;20061;-73
2021/01/09 06:46:35;;;;;;;42.67;20.05;;;3.60;77.20;;;;;;5115786;28;20051;-74
2021/01/09 06:49:01;;;;;;;37.95;19.08;;;3.60;77.20;;;;;;5115754;28;20024;-74
2021/01/09 06:51:39;;;;;;;37.97;17.88;;;3.70;77.30;;;;;;5115397;28;20084;-74
2021/01/09 06:54:14;;;;;;;39.42;18.77;;;3.70;77.20;;;;;;5114196;28;20417;-74
2021/01/09 06:56:42;;;;;;;37.75;19.35;;;3.70;77.30;;;;;;5114183;28;20020;-74
2021/01/09 06:59:07;;;;;;;35.88;17.63;;;3.80;77.40;;;;;;5115275;28;20489;-73
2021/01/09 07:01:37;;;;;;;37.55;19.23;;;3.80;77.30;;;;;;5115310;28;20136;-73
2021/01/09 07:04:04;;;;;;;38.72;19.15;;;3.80;76.90;;;;;;5115778;28;20031;-73
2021/01/09 07:07:08;;;;;;;34.55;18.63;;;3.80;76.80;;;;;;5114910;28;20027;-73
2021/01/09 07:09:34;;;;;;;37.75;18.75;;;3.80;76.70;;;;;;5072402;28;20120;-74
2021/01/09 07:12:01;;;;;;;37.55;19.73;;;3.70;76.80;;;;;;5072194;28;20040;-74
2021/01/09 07:14:34;;;;;;;38.17;19.33;;;3.70;77.10;;;;;;5092978;28;20046;-73
2021/01/09 07:17:00;;;;;;;37.08;18.42;;;3.70;77.20;;;;;;5114745;28;20026;-74
2021/01/09 07:19:30;;;;;;;40.08;19.23;;;3.80;77.30;;;;;;5115240;28;20035;-74
2021/01/09 07:21:57;;;;;;;39.80;19.75;;;3.80;78.00;;;;;;5114632;28;20379;-75
2021/01/09 07:24:26;;;;;;;38.55;19.98;;;3.90;77.40;;;;;;5114899;28;20032;-75
2021/01/09 07:26:54;;;;;;;36.67;19.17;;;3.90;77.50;;;;;;5113798;28;20463;-74
2021/01/09 07:29:26;;;;;;;40.83;19.27;;;3.90;77.30;;;;;;5114750;28;20019;-74
2021/01/09 07:31:53;;;;;;;40.10;19.33;;;4.00;77.40;;;;;;5114045;28;20020;-74
2021/01/09 07:34:22;;;;;;;40.25;20.52;;;4.00;77.20;;;;;;5113384;28;20423;-74
2021/01/09 07:36:53;;;;;;;42.13;20.77;;;4.00;77.10;;;;;;5113366;28;20031;-75
2021/01/09 07:39:25;;;;;;;42.80;19.58;;;4.00;77.00;;;;;;5114333;28;20060;-74
2021/01/09 07:41:51;;;;;;;39.80;19.88;;;4.00;77.00;;;;;;5114883;28;20070;-76
2021/01/09 07:44:18;;;;;;;39.17;18.90;;;4.00;76.90;;;;;;5114506;28;20028;-74
2021/01/09 07:46:52;;;;;;;43.90;21.30;;;4.10;77.00;;;;;;5114456;28;20032;-74
2021/01/09 07:49:32;;;;;;;40.25;20.83;;;4.10;77.00;;;;;;5113047;28;20055;-74
2021/01/09 07:52:03;;;;;;;39.22;19.27;;;4.10;76.90;;;;;;5112975;28;20035;-74
2021/01/09 07:54:47;;;;;;;40.17;20.85;;;4.10;76.80;;;;;;5114537;28;20325;-73
2021/01/09 07:57:18;;;;;;;40.67;21.52;;;4.10;76.60;;;;;;5113965;28;20390;-75
2021/01/09 08:00:08;;;;;;;43.00;21.27;;;4.10;77.00;;;;;;5114139;28;20031;-75
2021/01/09 08:02:39;;;;;;;43.80;21.80;;;4.20;77.10;;;;;;5113546;28;20141;-76
2021/01/09 08:05:21;;;;;;;42.70;20.83;;;4.30;77.00;;;;;;5114281;28;20024;-74
2021/01/09 08:07:52;;;;;;;41.40;20.67;;;4.30;76.60;;;;;;5114045;28;20015;-74
2021/01/09 08:10:25;;;;;;;38.58;20.38;;;4.30;76.60;;;;;;5114038;28;20531;-75
2021/01/09 08:13:01;;;;;;;44.65;21.33;;;4.40;76.90;;;;;;5113790;28;20024;-75
2021/01/09 08:15:54;;;;;;;39.97;20.10;;;4.40;77.00;;;;;;5114015;28;20026;-74
2021/01/09 08:18:21;;;;;;;48.47;24.08;;;4.50;77.00;;;;;;5114032;28;20028;-74
2021/01/09 08:20:50;;;;;;;48.08;25.83;;;4.60;76.90;;;;;;5114309;28;20508;-75
2021/01/09 08:23:16;;;;;;;44.58;21.50;;;4.60;76.70;;;;;;5113986;28;20098;-74
2021/01/09 08:25:46;;;;;;;42.30;21.27;;;4.70;76.70;;;;;;5113855;28;20068;-75
2021/01/09 08:28:14;;;;;;;42.70;21.23;;;4.80;76.80;;;;;;5114261;28;20066;-73
2021/01/09 08:30:40;;;;;;;47.22;21.23;;;4.80;76.40;;;;;;5113949;28;20026;-75
2021/01/09 08:33:07;;;;;;;38.58;19.92;;;4.90;76.10;;;;;;5113954;28;20103;-74
2021/01/09 08:35:35;;;;;;;40.92;20.67;;;4.90;75.80;;;;;;5113467;28;20048;-74
2021/01/09 08:38:01;;;;;;;41.63;21.88;;;5.00;75.60;;;;;;5113706;28;20062;-76
2021/01/09 08:40:31;;;;;;;44.42;21.40;;;5.00;75.60;;;;;;5114071;28;20027;-73
2021/01/09 08:43:01;;;;;;;39.25;19.02;;;5.00;75.60;;;;;;5112909;28;20463;-75
2021/01/09 08:45:49;;;;;;;39.50;20.20;;;5.00;75.30;;;;;;5112679;28;20034;-76
2021/01/09 08:48:15;;;;;;;44.50;20.85;;;5.00;75.10;;;;;;5114502;28;20050;-75
2021/01/09 08:51:05;;;;;;;42.45;21.58;;;5.00;75.20;;;;;;5114008;28;20032;-73
2021/01/09 08:53:38;;;;;;;41.80;21.05;;;5.10;75.20;;;;;;5114178;28;20032;-75
2021/01/09 08:56:04;;;;;;;46.65;22.60;;;5.20;75.40;;;;;;5112541;28;20027;-74
2021/01/09 08:58:34;;;;;;;44.30;21.70;;;5.20;75.30;;;;;;5112721;28;20032;-76
2021/01/09 09:01:07;;;;;;;39.75;19.55;;;5.30;75.10;;;;;;5113135;28;20031;-74
2021/01/09 09:03:40;;;;;;;38.75;19.70;;;5.30;74.80;;;;;;5111883;28;20032;-74
2021/01/09 09:06:08;;;;;;;38.13;19.90;;;5.40;74.80;;;;;;5112456;28;20051;-73
2021/01/09 09:08:35;;;;;;;45.42;22.15;;;5.50;74.80;;;;;;5113549;28;20027;-75
2021/01/09 09:11:04;;;;;;;36.45;18.75;;;5.50;74.70;;;;;;5115033;28;20023;-75
2021/01/09 09:13:31;;;;;;;39.90;19.13;;;5.60;74.50;;;;;;5112370;28;20024;-75
2021/01/09 09:15:57;;;;;;;40.35;20.08;;;5.70;74.20;;;;;;5117068;28;20023;-76
2021/01/09 09:18:31;;;;;;;34.03;18.73;;;5.70;74.10;;;;;;5117506;28;20024;-74
2021/01/09 09:20:57;;;;;;;40.22;18.67;;;5.80;74.10;;;;;;5116303;28;20387;-75
2021/01/09 09:23:24;;;;;;;37.25;19.38;;;6.00;74.50;;;;;;5117657;28;20046;-75
2021/01/09 09:26:12;;;;;;;36.92;18.65;;;6.00;73.90;;;;;;5116382;28;20051;-74
2021/01/09 09:28:55;;;;;;;38.05;19.80;;;6.10;73.20;;;;;;5116509;28;20024;-73
2021/01/09 09:31:28;;;;;;;41.15;21.38;;;6.20;73.40;;;;;;5116950;28;20024;-73
2021/01/09 09:34:01;;;;;;;34.35;18.60;;;6.40;73.40;;;;;;5117318;28;20019;-74
2021/01/09 09:36:27;;;;;;;37.83;19.35;;;6.40;72.20;;;;;;5116619;28;20024;-75
2021/01/09 09:38:54;;;;;;;36.67;19.02;;;6.30;71.90;;;;;;5117442;28;20130;-75
2021/01/09 09:41:20;;;;;;;35.33;19.55;;;6.30;72.00;;;;;;5115869;28;20066;-75
2021/01/09 09:43:59;;;;;;;37.47;20.50;;;6.30;71.90;;;;;;5116901;28;20485;-76
2021/01/09 09:46:26;;;;;;;38.10;20.40;;;6.20;71.20;;;;;;5116555;28;20433;-75
2021/01/09 09:48:52;;;;;;;40.58;22.02;;;6.20;71.20;;;;;;5116962;28;20028;-75
2021/01/09 09:51:18;;;;;;;41.75;22.33;;;6.10;71.20;;;;;;5116884;28;20108;-74
2021/01/09 09:53:56;;;;;;;40.30;22.70;;;6.10;71.20;;;;;;5117380;28;20047;-75
2021/01/09 09:56:23;;;;;;;42.28;21.85;;;6.10;71.60;;;;;;5116624;28;20096;-75
2021/01/09 09:59:04;;;;;;;41.33;21.58;;;6.10;71.80;;;;;;5115255;28;20024;-74
2021/01/09 10:01:30;;;;;;;37.97;19.42;;;6.10;71.50;;;;;;5116450;28;20036;-75
2021/01/09 10:03:56;;;;;;;41.30;21.20;;;6.10;71.20;;;;;;5115298;28;20023;-75
2021/01/09 10:06:22;;;;;;;35.83;19.27;;;6.10;70.70;;;;;;5116446;28;20030;-73
2021/01/09 10:08:48;;;;;;;48.65;22.77;;;6.00;70.50;;;;;;5117252;28;20371;-75
2021/01/09 10:11:15;;;;;;;54.22;25.88;;;5.90;70.30;;;;;;5115806;28;20352;-75
2021/01/09 10:13:40;;;;;;;41.88;21.77;;;5.80;70.70;;;;;;5114988;28;20027;-74
2021/01/09 10:16:06;;;;;;;53.03;26.70;;;5.80;71.30;;;;;;5116444;28;20030;-74
2021/01/09 10:18:35;;;;;;;42.92;22.88;;;5.90;71.30;;;;;;5116265;28;20031;-74
2021/01/09 10:21:01;;;;;;;43.33;23.02;;;5.90;71.90;;;;;;5115923;28;20031;-75
2021/01/09 10:23:30;;;;;;;41.85;23.90;;;6.10;72.00;;;;;;5116394;28;20483;-74
2021/01/09 10:25:56;;;;;;;36.78;20.58;;;6.20;71.90;;;;;;5115722;28;20341;-75
2021/01/09 10:28:23;;;;;;;40.92;20.80;;;6.30;71.30;;;;;;5114712;28;20031;-75
2021/01/09 10:30:49;;;;;;;35.50;19.25;;;6.30;71.10;;;;;;5116034;28;20027;-75
2021/01/09 10:33:15;;;;;;;37.50;19.20;;;6.40;71.30;;;;;;5114454;28;20379;-74
2021/01/09 10:35:48;;;;;;;40.53;19.75;;;6.40;70.40;;;;;;5115029;28;20023;-73
2021/01/09 10:38:15;;;;;;;37.03;19.35;;;6.40;69.80;;;;;;5115930;28;20083;-74
2021/01/09 10:40:42;;;;;;;37.88;18.80;;;6.30;70.00;;;;;;5115357;28;20456;-74
2021/01/09 10:43:08;;;;;;;38.83;19.95;;;6.30;70.30;;;;;;5115083;28;20104;-74
2021/01/09 10:45:33;;;;;;;39.42;21.13;;;6.20;69.70;;;;;;5115700;28;20027;-74
2021/01/09 10:47:59;;;;;;;40.70;21.33;;;6.20;70.10;;;;;;5115884;28;20035;-74
2021/01/09 10:50:25;;;;;;;40.58;21.23;;;6.20;70.50;;;;;;5115725;28;20035;-75
2021/01/09 10:52:51;;;;;;;37.72;20.15;;;6.30;71.10;;;;;;5115199;28;20023;-74
2021/01/09 10:55:16;;;;;;;37.20;20.17;;;6.40;70.70;;;;;;5114338;28;20080;-75
2021/01/09 10:57:42;;;;;;;37.13;19.50;;;6.40;70.00;;;;;;5116011;28;20034;-75
2021/01/09 11:00:09;;;;;;;41.85;21.50;;;6.40;69.50;;;;;;5115029;28;20027;-75
2021/01/09 11:02:35;;;;;;;37.17;19.00;;;6.30;69.20;;;;;;5115459;28;20023;-75
2021/01/09 11:05:01;;;;;;;38.15;20.17;;;6.20;69.10;;;;;;5114736;28;20073;-75
2021/01/09 11:07:26;;;;;;;36.47;20.20;;;6.00;69.30;;;;;;5115364;28;20027;-76
2021/01/09 11:10:11;;;;;;;38.35;20.83;;;6.00;69.40;;;;;;5115489;28;20031;-76
2021/01/09 11:12:37;;;;;;;48.90;24.85;;;5.90;69.50;;;;;;5115251;28;20106;-75
2021/01/09 11:15:03;;;;;;;45.95;23.15;;;5.90;70.10;;;;;;5115512;28;20070;-75
2021/01/09 11:17:30;;;;;;;46.38;24.63;;;5.90;70.40;;;;;;5114884;28;20491;-74
2021/01/09 11:19:55;;;;;;;40.03;20.67;;;5.90;70.40;;;;;;5114776;28;20031;-76
2021/01/09 11:22:21;;;;;;;41.35;20.02;;;5.90;70.60;;;;;;5114977;28;20436;-76
2021/01/09 11:24:47;;;;;;;37.88;19.55;;;6.00;70.80;;;;;;5115068;28;20024;-74
2021/01/09 11:27:12;;;;;;;33.40;16.60;;;6.00;71.10;;;;;;5115170;28;20031;-75
2021/01/09 11:29:38;;;;;;;37.20;19.17;;;6.20;70.80;;;;;;5114761;28;20133;-75
2021/01/09 11:32:05;;;;;;;37.70;19.67;;;6.30;70.50;;;;;;5114885;28;20034;-74
2021/01/09 11:34:31;;;;;;;33.92;16.88;;;6.40;70.60;;;;;;5113469;28;20119;-76
2021/01/09 11:36:57;;;;;;;34.15;18.50;;;6.50;69.40;;;;;;5114150;28;20056;-76
2021/01/09 11:39:23;;;;;;;32.33;17.98;;;6.40;68.70;;;;;;5115093;28;20537;-74
2021/01/09 11:41:49;;;;;;;35.97;17.33;;;6.40;68.50;;;;;;5114491;28;20107;-74
2021/01/09 11:44:16;;;;;;;33.97;17.58;;;6.30;68.40;;;;;;5114296;28;20023;-74
2021/01/09 11:46:42;;;;;;;36.88;19.52;;;6.20;68.10;;;;;;5114785;28;20023;-75
2021/01/09 11:49:07;;;;;;;37.92;19.20;;;6.10;68.20;;;;;;5112019;28;20382;-76
2021/01/09 11:51:33;;;;;;;40.15;20.48;;;6.00;68.30;;;;;;5114944;28;20024;-76
2021/01/09 11:53:59;;;;;;;35.50;17.95;;;5.90;68.20;;;;;;5114513;28;20059;-75
2021/01/09 11:56:25;;;;;;;39.60;20.13;;;5.80;68.30;;;;;;5114993;28;20057;-74
2021/01/09 11:58:50;;;;;;;32.15;17.73;;;5.80;68.40;;;;;;5113084;28;20023;-74
2021/01/09 12:01:17;;;;;;;36.10;18.95;;;5.80;68.80;;;;;;5114880;28;20027;-76
2021/01/09 12:03:42;;;;;;;36.13;19.23;;;5.80;69.30;;;;;;5115380;28;20032;-76
2021/01/09 12:06:08;;;;;;;39.60;19.73;;;6.00;69.50;;;;;;5113218;28;20077;-76
2021/01/09 12:08:34;;;;;;;40.05;21.05;;;6.10;69.30;;;;;;5114411;28;20383;-76
2021/01/09 12:11:00;;;;;;;37.72;19.30;;;6.20;69.10;;;;;;5114161;28;20541;-76
2021/01/09 12:13:25;;;;;;;29.45;15.75;;;6.20;68.70;;;;;;5113087;28;20019;-74
2021/01/09 12:15:51;;;;;;;35.13;18.20;;;6.20;68.20;;;;;;5113970;28;20020;-74
2021/01/09 12:18:19;;;;;;;33.70;17.52;;;6.10;68.10;;;;;;5112923;28;20360;-74
2021/01/09 12:20:47;;;;;;;38.83;19.90;;;6.20;68.30;;;;;;5113062;28;20023;-74
2021/01/09 12:23:14;;;;;;;33.58;17.63;;;6.20;68.10;;;;;;5114294;28;20024;-74
2021/01/09 12:25:40;;;;;;;32.72;16.08;;;6.20;67.60;;;;;;5113731;28;20107;-74
2021/01/09 12:28:05;;;;;;;35.70;18.65;;;6.10;67.50;;;;;;5113530;28;20443;-75
2021/01/09 12:30:31;;;;;;;37.33;19.40;;;6.10;68.10;;;;;;5114064;28;20031;-75
2021/01/09 12:32:57;;;;;;;38.70;18.65;;;6.10;68.50;;;;;;5114582;28;20053;-76
2021/01/09 12:35:22;;;;;;;39.63;20.13;;;6.20;68.90;;;;;;5112839;28;20063;-76
2021/01/09 12:37:48;;;;;;;31.38;17.05;;;6.50;69.20;;;;;;5113468;28;20030;-74
2021/01/09 12:40:14;;;;;;;34.33;17.73;;;6.80;68.80;;;;;;5113487;28;20059;-75